MPDA/DAV METAR and TAF weather

Enter ICAO airport designator
Station Type Date Time Source
MPDA METAR 2019/06/16 20:00 UTC NOAA

MPDA 162000Z 19010KT 9999 SCT015 31/25 Q1007


Station Type Date Time Source
MPDA Decoded METAR 2019/06/16 20:00 UTC NOAA

David, Panama (MPDA) 08-24N 082-25W 26M
Jun 16, 2019 - 04:00 PM EDT / 2019.06.16 2000 UTC
Wind: from the S (190 degrees) at 12 MPH (10 KT):0
Visibility: greater than 7 mile(s):0
Sky conditions: partly cloudy
Temperature: 87 F (31 C)
Heat index: 97.5 F (36.4 C):1
Dew Point: 77 F (25 C)
Relative Humidity: 70%
Pressure (altimeter): 29.74 in. Hg (1007 hPa)
ob: MPDA 162000Z 19010KT 9999 SCT015 31/25 Q1007
cycle: 20

Station Type Date Time Source
MPDA TAF 2019/06/16 18:21 UTC NOAA

TAF TAF MPDA 161700Z 1618/1706 17006KT 9999 SCT018 PROB30
TEMPO 1620/1624 5000 TSRA SCT015CB BKN090

Example: see airport list